createdAt,value
2024-04-18T00:01:08.961Z,2.47
2024-04-18T00:16:08.930Z,2.45
2024-04-18T00:31:09.321Z,2.32
2024-04-18T00:46:09.767Z,2.17
2024-04-18T01:01:10.219Z,1.98
2024-04-18T01:16:10.733Z,2.03
2024-04-18T01:31:11.105Z,2.13
2024-04-18T01:46:11.504Z,2.38
2024-04-18T02:01:12.061Z,2.56
2024-04-18T02:16:12.526Z,2.63
2024-04-18T02:31:13.023Z,2.73
2024-04-18T02:46:13.804Z,2.63
2024-04-18T03:01:14.083Z,2.91
2024-04-18T03:16:14.647Z,3.05
2024-04-18T03:31:15.583Z,3.10
2024-04-18T03:46:15.987Z,3.19
2024-04-18T04:01:16.498Z,3.24
2024-04-18T04:16:16.780Z,3.36
2024-04-18T04:31:17.680Z,3.42
2024-04-18T04:46:18.454Z,3.31
2024-04-18T05:01:19.406Z,3.28
2024-04-18T05:16:19.607Z,3.11
2024-04-18T05:31:20.343Z,3.06
2024-04-18T05:46:21.119Z,2.67
2024-04-18T06:01:21.956Z,2.66
2024-04-18T06:16:22.109Z,3.14
2024-04-18T06:31:22.819Z,3.42
2024-04-18T06:46:23.504Z,4.04
2024-04-18T07:01:24.242Z,4.36
2024-04-18T07:16:24.854Z,4.91
2024-04-18T07:31:25.608Z,5.11
2024-04-18T07:46:26.214Z,5.01
2024-04-18T08:01:28.353Z,5.21
2024-04-18T08:16:27.660Z,5.62
2024-04-18T08:31:28.363Z,5.47
2024-04-18T08:46:28.946Z,5.84
2024-04-18T09:01:29.530Z,5.86
2024-04-18T09:16:30.074Z,6.50
2024-04-18T09:31:37.954Z,5.76
2024-04-18T09:46:32.472Z,6.54
2024-04-18T10:01:31.727Z,8.14
2024-04-18T10:16:32.623Z,7.82
2024-04-18T10:31:33.129Z,9.50
2024-04-18T10:46:33.432Z,9.22
2024-04-18T11:01:33.885Z,8.03
2024-04-18T11:16:34.335Z,9.93
2024-04-18T11:31:35.351Z,10.18
2024-04-18T11:46:36.296Z,11.34
